Winnebago, IL (61088)

10:03 PM CST on November 22, 2014 (GMT -0600)
3 Mi. SE of Winnebago | Change Station
CLOSE
Current Station
Personal Weather Station
Location: Winnebago, IL
Elevation: 838 ft
Nearby Weather Stations

Elev 838 ft 42.23 °N, 89.19 °W | Updated 4 seconds ago

Overcast
Overcast
49.8 °F
Feels Like 50 °F
N
2.0
Wind Variable Wind from SSE
Gusts 5.0 mph

Today
High -- | Low -- °F
--% Chance of Precip.
Yesterday
High -- | Low -- °F
Precip. -- in
6:56 AM 4:29 PM
New Moon, 1% visible
Pressure 29.83 in
Visibility 9.0 miles
Clouds Mostly Cloudy 2700 ft
Overcast 3900 ft
Windchill 50 °F
Dew Point 50 °F
Humidity 100%
Rainfall 0.14 in
Snow Depth Not available.
UV 0 out of 12
Pollen .10 out of 12
Air Quality Not available.
Flu Activity Not available.
METAR KRFD 230354Z 19010KT 9SM BKN027 OVC039 09/07 A2982 RMK AO2 SLP102 T00940072

More Conditions Fewer Conditions

Pressure 29.83 in
Visibility 9.0 miles
Clouds Mostly Cloudy 2700 ft
Overcast 3900 ft
Windchill 50 °F
Dew Point 50 °F
Humidity 100%
Rainfall 0.14 in
Snow Depth Not available.
UV 0 out of 12
Pollen .10 out of 12
Air Quality Not available.
Flu Activity Not available.
METAR KRFD 230354Z 19010KT 9SM BKN027 OVC039 09/07 A2982 RMK AO2 SLP102 T00940072

More Conditions Fewer Conditions

10-Day Weather Forecast

Almanac

Astronomy

Nov. 22, 2014 Rise Set
Actual Time
Civil Twilight
Nautical Twilight
Astronomical Twilight
Moon
Length of Visible Light
Length of Day
Tomorrow will be .
, % of the Moon is Illuminated

Today's Extremes

State Highs State Lows

Community

WunderPhotos

Upload Photos

1,772,993 photos uploaded!

WunderBlogs® & News

Nearby

Air Quality

  Air Quality AQ Index Pollutant
Not available.

Snow Depth

Station Depth Elevation

Earthquake Activity

City Distance Mag. Time & Date
Minimum magnitude displayed is 2.5.

Coastal Water Temperatures

Place Temperature

Nearby Weather Stations